sensor_id;sensor_type;location;lat;lon;timestamp;pressure;altitude;pressure_sealevel;temperature;humidity
21433;BME280;18592;49.708;10.900;2023-01-25T00:03:51;100409.03;;;6.95;56.37
21433;BME280;18592;49.708;10.900;2023-01-25T00:05:58;100415.47;;;6.94;55.77
21433;BME280;18592;49.708;10.900;2023-01-25T00:08:00;100413.59;;;6.95;56.01
21433;BME280;18592;49.708;10.900;2023-01-25T00:10:02;100410.03;;;6.94;56.07
21433;BME280;18592;49.708;10.900;2023-01-25T00:12:04;100410.88;;;6.95;56.00
21433;BME280;18592;49.708;10.900;2023-01-25T00:14:06;100410.03;;;6.94;56.06
21433;BME280;18592;49.708;10.900;2023-01-25T00:16:08;100405.63;;;6.93;56.11
21433;BME280;18592;49.708;10.900;2023-01-25T00:18:10;100409.19;;;6.94;56.06
21433;BME280;18592;49.708;10.900;2023-01-25T00:20:11;100409.19;;;6.94;55.91
21433;BME280;18592;49.708;10.900;2023-01-25T00:22:13;100395.63;;;6.94;56.24
21433;BME280;18592;49.708;10.900;2023-01-25T00:24:14;100405.63;;;6.93;56.06
21433;BME280;18592;49.708;10.900;2023-01-25T00:26:16;100399.41;;;6.93;55.96
21433;BME280;18592;49.708;10.900;2023-01-25T00:28:18;100400.41;;;6.92;55.97
21433;BME280;18592;49.708;10.900;2023-01-25T00:30:22;100391.41;;;6.91;55.99
21433;BME280;18592;49.708;10.900;2023-01-25T00:32:31;100396.84;;;6.91;56.01
21433;BME280;18592;49.708;10.900;2023-01-25T00:34:42;100390.13;;;6.87;55.98
21433;BME280;18592;49.708;10.900;2023-01-25T00:36:44;100390.97;;;6.88;56.08
21433;BME280;18592;49.708;10.900;2023-01-25T00:38:46;100390.97;;;6.88;56.19
21433;BME280;18592;49.708;10.900;2023-01-25T00:40:48;100388.25;;;6.88;56.00
21433;BME280;18592;49.708;10.900;2023-01-25T00:42:53;100380.94;;;6.88;56.02
21433;BME280;18592;49.708;10.900;2023-01-25T00:44:54;100373.84;;;6.87;55.54
21433;BME280;18592;49.708;10.900;2023-01-25T00:46:56;100371.13;;;6.87;56.04
21433;BME280;18592;49.708;10.900;2023-01-25T00:48:58;100370.09;;;6.88;56.04
21433;BME280;18592;49.708;10.900;2023-01-25T00:51:00;100364.69;;;6.88;55.87
21433;BME280;18592;49.708;10.900;2023-01-25T00:53:02;100368.06;;;6.90;55.87
21433;BME280;18592;49.708;10.900;2023-01-25T00:55:04;100368.06;;;6.90;55.99
21433;BME280;18592;49.708;10.900;2023-01-25T00:57:07;100368.06;;;6.90;55.86
21433;BME280;18592;49.708;10.900;2023-01-25T00:59:11;100373.50;;;6.90;56.00
21433;BME280;18592;49.708;10.900;2023-01-25T01:01:14;100374.69;;;6.88;55.86
21433;BME280;18592;49.708;10.900;2023-01-25T01:03:15;100369.44;;;6.86;55.72
21433;BME280;18592;49.708;10.900;2023-01-25T01:05:19;100364.38;;;6.83;55.64
21433;BME280;18592;49.708;10.900;2023-01-25T01:07:21;100376.91;;;6.84;55.77
21433;BME280;18592;49.708;10.900;2023-01-25T01:09:23;100361.03;;;6.81;55.74
21433;BME280;18592;49.708;10.900;2023-01-25T01:11:27;100373.56;;;6.82;55.80
21433;BME280;18592;49.708;10.900;2023-01-25T01:13:31;100370.00;;;6.82;55.86
21433;BME280;18592;49.708;10.900;2023-01-25T01:15:36;100366.44;;;6.81;55.80
21433;BME280;18592;49.708;10.900;2023-01-25T01:17:37;100369.16;;;6.81;55.77
21433;BME280;18592;49.708;10.900;2023-01-25T01:19:40;100373.72;;;6.81;55.75
21433;BME280;18592;49.708;10.900;2023-01-25T01:21:41;100368.50;;;6.79;55.77
21433;BME280;18592;49.708;10.900;2023-01-25T01:23:43;100371.56;;;6.76;55.56
21433;BME280;18592;49.708;10.900;2023-01-25T01:25:45;100377.34;;;6.73;55.76
21433;BME280;18592;49.708;10.900;2023-01-25T01:27:47;100373.63;;;6.74;55.77
21433;BME280;18592;49.708;10.900;2023-01-25T01:29:49;100367.19;;;6.75;55.85
21433;BME280;18592;49.708;10.900;2023-01-25T01:31:52;100364.28;;;6.77;55.88
21433;BME280;18592;49.708;10.900;2023-01-25T01:33:59;100360.06;;;6.74;55.82
21433;BME280;18592;49.708;10.900;2023-01-25T01:36:08;100363.13;;;6.71;55.71
21433;BME280;18592;49.708;10.900;2023-01-25T01:38:10;100370.25;;;6.72;55.28
21433;BME280;18592;49.708;10.900;2023-01-25T01:40:15;100375.69;;;6.72;55.69
21433;BME280;18592;49.708;10.900;2023-01-25T01:42:17;100364.84;;;6.72;55.84
21433;BME280;18592;49.708;10.900;2023-01-25T01:44:21;100365.84;;;6.71;55.92
21433;BME280;18592;49.708;10.900;2023-01-25T01:46:47;100367.91;;;6.69;55.62
21433;BME280;18592;49.708;10.900;2023-01-25T01:48:53;100369.97;;;6.67;56.17
21433;BME280;18592;49.708;10.900;2023-01-25T01:51:02;100361.19;;;6.65;55.78
21433;BME280;18592;49.708;10.900;2023-01-25T01:53:06;100368.91;;;6.68;55.59
21433;BME280;18592;49.708;10.900;2023-01-25T01:55:14;100373.31;;;6.69;55.78
21433;BME280;18592;49.708;10.900;2023-01-25T01:57:23;100371.47;;;6.70;55.67
21433;BME280;18592;49.708;10.900;2023-01-25T01:59:32;100369.97;;;6.67;55.69
21433;BME280;18592;49.708;10.900;2023-01-25T02:01:34;100367.91;;;6.69;55.84
21433;BME280;18592;49.708;10.900;2023-01-25T02:03:36;100370.63;;;6.69;55.81
21433;BME280;18592;49.708;10.900;2023-01-25T02:06:09;100368.91;;;6.68;55.90
21433;BME280;18592;49.708;10.900;2023-01-25T02:08:14;100368.09;;;6.68;55.77
21433;BME280;18592;49.708;10.900;2023-01-25T02:10:17;100372.66;;;6.67;56.04
21433;BME280;18592;49.708;10.900;2023-01-25T02:12:21;100373.50;;;6.68;55.92
21433;BME280;18592;49.708;10.900;2023-01-25T02:14:26;100363.50;;;6.68;55.83
21433;BME280;18592;49.708;10.900;2023-01-25T02:16:28;100364.34;;;6.69;55.80
21433;BME280;18592;49.708;10.900;2023-01-25T02:18:30;100365.19;;;6.69;55.79
21433;BME280;18592;49.708;10.900;2023-01-25T02:20:44;100361.81;;;6.67;55.84
21433;BME280;18592;49.708;10.900;2023-01-25T02:23:00;100361.81;;;6.67;55.71
21433;BME280;18592;49.708;10.900;2023-01-25T02:25:08;100356.56;;;6.66;55.68
21433;BME280;18592;49.708;10.900;2023-01-25T02:27:11;100362.84;;;6.66;55.72
21433;BME280;18592;49.708;10.900;2023-01-25T02:29:13;100364.91;;;6.64;55.58
21433;BME280;18592;49.708;10.900;2023-01-25T02:31:16;100356.75;;;6.64;55.53
21433;BME280;18592;49.708;10.900;2023-01-25T02:33:18;100363.38;;;6.62;55.61
21433;BME280;18592;49.708;10.900;2023-01-25T02:37:58;100367.50;;;6.58;55.87
21433;BME280;18592;49.708;10.900;2023-01-25T02:40:01;100365.81;;;6.57;55.74
21433;BME280;18592;49.708;10.900;2023-01-25T02:42:06;100367.66;;;6.56;55.58
21433;BME280;18592;49.708;10.900;2023-01-25T02:44:14;100366.00;;;6.55;55.68
21433;BME280;18592;49.708;10.900;2023-01-25T02:46:28;100366.16;;;6.54;55.42
21433;BME280;18592;49.708;10.900;2023-01-25T02:48:31;100368.00;;;6.53;55.68
21433;BME280;18592;49.708;10.900;2023-01-25T02:50:33;100360.94;;;6.52;55.82
21433;BME280;18592;49.708;10.900;2023-01-25T02:52:35;100356.16;;;6.54;55.64
21433;BME280;18592;49.708;10.900;2023-01-25T02:54:51;100357.19;;;6.53;55.76
21433;BME280;18592;49.708;10.900;2023-01-25T02:56:54;100355.31;;;6.54;55.77
21433;BME280;18592;49.708;10.900;2023-01-25T02:58:58;100351.94;;;6.52;55.72
21433;BME280;18592;49.708;10.900;2023-01-25T03:01:00;100355.50;;;6.52;55.92
21433;BME280;18592;49.708;10.900;2023-01-25T03:03:02;100358.22;;;6.52;55.69
21433;BME280;18592;49.708;10.900;2023-01-25T03:05:05;100360.28;;;6.50;55.59
21433;BME280;18592;49.708;10.900;2023-01-25T03:07:07;100365.50;;;6.52;55.32
21433;BME280;18592;49.708;10.900;2023-01-25T03:09:10;100359.44;;;6.50;55.84
21433;BME280;18592;49.708;10.900;2023-01-25T03:11:15;100356.88;;;6.48;55.35
21433;BME280;18592;49.708;10.900;2023-01-25T03:13:18;100352.31;;;6.49;55.66
21433;BME280;18592;49.708;10.900;2023-01-25T03:15:21;100347.94;;;6.48;55.39
21433;BME280;18592;49.708;10.900;2023-01-25T03:17:29;100349.78;;;6.47;55.80
21433;BME280;18592;49.708;10.900;2023-01-25T03:19:31;100341.00;;;6.45;55.15
21433;BME280;18592;49.708;10.900;2023-01-25T03:21:33;100341.19;;;6.44;55.66
21433;BME280;18592;49.708;10.900;2023-01-25T03:23:35;100343.88;;;6.44;55.66
21433;BME280;18592;49.708;10.900;2023-01-25T03:25:37;100341.19;;;6.44;55.13
21433;BME280;18592;49.708;10.900;2023-01-25T03:27:45;100334.75;;;6.45;55.51
21433;BME280;18592;49.708;10.900;2023-01-25T03:29:47;100333.03;;;6.44;55.49
21433;BME280;18592;49.708;10.900;2023-01-25T03:31:55;100328.63;;;6.43;55.59
21433;BME280;18592;49.708;10.900;2023-01-25T03:33:57;100327.81;;;6.42;55.66
21433;BME280;18592;49.708;10.900;2023-01-25T03:36:04;100328.84;;;6.41;55.57
21433;BME280;18592;49.708;10.900;2023-01-25T03:38:06;100323.41;;;6.41;55.63
21433;BME280;18592;49.708;10.900;2023-01-25T03:40:10;100325.28;;;6.40;55.54
21433;BME280;18592;49.708;10.900;2023-01-25T03:42:18;100320.91;;;6.39;55.60
21433;BME280;18592;49.708;10.900;2023-01-25T03:44:21;100321.72;;;6.40;55.74
21433;BME280;18592;49.708;10.900;2023-01-25T03:46:23;100327.13;;;6.40;55.81
21433;BME280;18592;49.708;10.900;2023-01-25T03:48:25;100316.31;;;6.40;55.59
21433;BME280;18592;49.708;10.900;2023-01-25T03:50:29;100313.78;;;6.38;55.56
21433;BME280;18592;49.708;10.900;2023-01-25T03:52:32;100313.78;;;6.38;55.64
21433;BME280;18592;49.708;10.900;2023-01-25T03:54:41;100322.94;;;6.37;55.72
21433;BME280;18592;49.708;10.900;2023-01-25T03:56:43;100326.69;;;6.36;55.90
21433;BME280;18592;49.708;10.900;2023-01-25T03:58:52;100326.69;;;6.36;55.81
21433;BME280;18592;49.708;10.900;2023-01-25T04:00:55;100328.34;;;6.37;55.57
21433;BME280;18592;49.708;10.900;2023-01-25T04:02:58;100325.81;;;6.36;55.43
21433;BME280;18592;49.708;10.900;2023-01-25T04:05:01;100331.25;;;6.36;55.67
21433;BME280;18592;49.708;10.900;2023-01-25T04:07:02;100331.25;;;6.36;55.46
21433;BME280;18592;49.708;10.900;2023-01-25T04:09:06;100316.00;;;6.35;55.45
21433;BME280;18592;49.708;10.900;2023-01-25T04:11:13;100315.00;;;6.36;55.58
21433;BME280;18592;49.708;10.900;2023-01-25T04:13:20;100307.06;;;6.34;55.89
21433;BME280;18592;49.708;10.900;2023-01-25T04:15:23;100300.81;;;6.34;55.80
21433;BME280;18592;49.708;10.900;2023-01-25T04:17:25;100287.25;;;6.34;55.45
21433;BME280;18592;49.708;10.900;2023-01-25T04:19:45;100292.84;;;6.32;55.29
21433;BME280;18592;49.708;10.900;2023-01-25T04:21:50;100291.81;;;6.33;55.74
21433;BME280;18592;49.708;10.900;2023-01-25T04:24:08;100282.84;;;6.33;55.72
21433;BME280;18592;49.708;10.900;2023-01-25T04:26:13;100278.47;;;6.32;55.78
21433;BME280;18592;49.708;10.900;2023-01-25T04:28:26;100276.59;;;6.32;55.65
21433;BME280;18592;49.708;10.900;2023-01-25T04:30:28;100277.44;;;6.33;55.62
21433;BME280;18592;49.708;10.900;2023-01-25T04:32:34;100272.03;;;6.33;55.55
21433;BME280;18592;49.708;10.900;2023-01-25T04:34:36;100265.75;;;6.32;55.95
21433;BME280;18592;49.708;10.900;2023-01-25T04:36:42;100259.53;;;6.32;55.57
21433;BME280;18592;49.708;10.900;2023-01-25T04:38:47;100267.44;;;6.33;55.52
21433;BME280;18592;49.708;10.900;2023-01-25T04:40:50;100261.19;;;6.33;55.79
21433;BME280;18592;49.708;10.900;2023-01-25T04:42:56;100264.09;;;6.31;55.88
21433;BME280;18592;49.708;10.900;2023-01-25T04:44:58;100255.97;;;6.31;56.13
21433;BME280;18592;49.708;10.900;2023-01-25T04:47:00;100256.81;;;6.32;55.40
21433;BME280;18592;49.708;10.900;2023-01-25T04:49:02;100260.34;;;6.32;55.62
21433;BME280;18592;49.708;10.900;2023-01-25T04:51:04;100256.81;;;6.32;55.63
21433;BME280;18592;49.708;10.900;2023-01-25T04:53:08;100256.81;;;6.32;55.40
21433;BME280;18592;49.708;10.900;2023-01-25T04:55:10;100248.69;;;6.32;55.86
21433;BME280;18592;49.708;10.900;2023-01-25T04:57:16;100255.97;;;6.31;55.68
21433;BME280;18592;49.708;10.900;2023-01-25T04:59:23;100256.97;;;6.30;55.74
21433;BME280;18592;49.708;10.900;2023-01-25T05:01:25;100245.28;;;6.30;55.85
21433;BME280;18592;49.708;10.900;2023-01-25T05:03:27;100247.00;;;6.31;55.53
21433;BME280;18592;49.708;10.900;2023-01-25T05:05:29;100252.41;;;6.31;55.54
21433;BME280;18592;49.708;10.900;2023-01-25T05:07:33;100251.56;;;6.30;55.77
21433;BME280;18592;49.708;10.900;2023-01-25T05:09:36;100255.13;;;6.31;55.53
21433;BME280;18592;49.708;10.900;2023-01-25T05:11:37;100253.41;;;6.30;55.91
21433;BME280;18592;49.708;10.900;2023-01-25T05:13:43;100247.34;;;6.28;55.78
21433;BME280;18592;49.708;10.900;2023-01-25T05:15:57;100250.72;;;6.30;55.79
21433;BME280;18592;49.708;10.900;2023-01-25T05:17:59;100241.56;;;6.31;55.51
21433;BME280;18592;49.708;10.900;2023-01-25T05:20:05;100241.56;;;6.31;55.67
21433;BME280;18592;49.708;10.900;2023-01-25T05:22:15;100242.59;;;6.30;55.61
21433;BME280;18592;49.708;10.900;2023-01-25T05:24:22;100243.63;;;6.29;55.52
21433;BME280;18592;49.708;10.900;2023-01-25T05:26:24;100241.94;;;6.28;55.74
21433;BME280;18592;49.708;10.900;2023-01-25T05:28:45;100245.50;;;6.28;55.49
21433;BME280;18592;49.708;10.900;2023-01-25T05:30:58;100245.28;;;6.30;55.48
21433;BME280;18592;49.708;10.900;2023-01-25T05:33:00;100239.88;;;6.30;55.74
21433;BME280;18592;49.708;10.900;2023-01-25T05:35:02;100229.03;;;6.30;55.84
21433;BME280;18592;49.708;10.900;2023-01-25T05:37:06;100235.31;;;6.30;55.98
21433;BME280;18592;49.708;10.900;2023-01-25T05:39:11;100240.72;;;6.30;55.46
21433;BME280;18592;49.708;10.900;2023-01-25T05:41:13;100242.59;;;6.30;55.67
21433;BME280;18592;49.708;10.900;2023-01-25T05:43:15;100234.47;;;6.30;55.82
21433;BME280;18592;49.708;10.900;2023-01-25T05:45:17;100240.72;;;6.30;56.02
21433;BME280;18592;49.708;10.900;2023-01-25T05:47:20;100242.59;;;6.30;55.95
21433;BME280;18592;49.708;10.900;2023-01-25T05:49:27;100240.72;;;6.30;55.98
21433;BME280;18592;49.708;10.900;2023-01-25T05:51:30;100235.31;;;6.30;55.79
21433;BME280;18592;49.708;10.900;2023-01-25T05:53:40;100231.75;;;6.30;55.84
21433;BME280;18592;49.708;10.900;2023-01-25T05:55:42;100228.22;;;6.29;55.64
21433;BME280;18592;49.708;10.900;2023-01-25T05:57:49;100224.47;;;6.30;55.53
21433;BME280;18592;49.708;10.900;2023-01-25T05:59:54;100230.75;;;6.31;55.65
21433;BME280;18592;49.708;10.900;2023-01-25T06:01:56;100226.34;;;6.30;55.62
21433;BME280;18592;49.708;10.900;2023-01-25T06:03:58;100223.63;;;6.30;55.91
21433;BME280;18592;49.708;10.900;2023-01-25T06:06:03;100221.97;;;6.29;55.50
21433;BME280;18592;49.708;10.900;2023-01-25T06:08:08;100219.25;;;6.29;55.71
21433;BME280;18592;49.708;10.900;2023-01-25T06:10:19;100221.97;;;6.29;55.75
21433;BME280;18592;49.708;10.900;2023-01-25T06:12:23;100218.59;;;6.27;55.69
21433;BME280;18592;49.708;10.900;2023-01-25T06:14:25;100224.03;;;6.27;55.68
21433;BME280;18592;49.708;10.900;2023-01-25T06:16:27;100223.19;;;6.26;55.57
21433;BME280;18592;49.708;10.900;2023-01-25T06:18:54;100222.97;;;6.28;55.60
21433;BME280;18592;49.708;10.900;2023-01-25T06:21:15;100217.56;;;6.28;55.79
21433;BME280;18592;49.708;10.900;2023-01-25T06:23:17;100223.19;;;6.26;55.83
21433;BME280;18592;49.708;10.900;2023-01-25T06:25:18;100224.03;;;6.27;55.65
21433;BME280;18592;49.708;10.900;2023-01-25T06:27:20;100229.44;;;6.27;55.59
21433;BME280;18592;49.708;10.900;2023-01-25T06:29:22;100232.97;;;6.27;55.59
21433;BME280;18592;49.708;10.900;2023-01-25T06:31:24;100222.97;;;6.28;55.53
21433;BME280;18592;49.708;10.900;2023-01-25T06:33:29;100219.63;;;6.26;55.76
21433;BME280;18592;49.708;10.900;2023-01-25T06:35:33;100229.44;;;6.27;55.77
21433;BME280;18592;49.708;10.900;2023-01-25T06:37:36;100224.03;;;6.27;55.70
21433;BME280;18592;49.708;10.900;2023-01-25T06:39:38;100223.19;;;6.26;55.80
21433;BME280;18592;49.708;10.900;2023-01-25T06:41:40;100225.88;;;6.26;55.62
21433;BME280;18592;49.708;10.900;2023-01-25T06:43:45;100229.59;;;6.25;55.49
21433;BME280;18592;49.708;10.900;2023-01-25T06:45:50;100226.03;;;6.25;55.77
21433;BME280;18592;49.708;10.900;2023-01-25T06:47:52;100221.69;;;6.24;55.38
21433;BME280;18592;49.708;10.900;2023-01-25T06:49:54;100228.09;;;6.23;55.85
21433;BME280;18592;49.708;10.900;2023-01-25T06:51:58;100228.47;;;6.20;55.15
21433;BME280;18592;49.708;10.900;2023-01-25T06:54:02;100228.47;;;6.20;55.52
21433;BME280;18592;49.708;10.900;2023-01-25T06:56:11;100221.38;;;6.19;55.69
21433;BME280;18592;49.708;10.900;2023-01-25T06:58:13;100226.78;;;6.19;55.70
21433;BME280;18592;49.708;10.900;2023-01-25T07:00:15;100224.94;;;6.19;55.32
21433;BME280;18592;49.708;10.900;2023-01-25T07:02:17;100228.28;;;6.21;55.60
21433;BME280;18592;49.708;10.900;2023-01-25T07:04:19;100225.59;;;6.21;55.54
21433;BME280;18592;49.708;10.900;2023-01-25T07:06:21;100224.53;;;6.22;55.78
21433;BME280;18592;49.708;10.900;2023-01-25T07:08:23;100226.44;;;6.22;55.74
21433;BME280;18592;49.708;10.900;2023-01-25T07:10:25;100230.16;;;6.21;55.71
21433;BME280;18592;49.708;10.900;2023-01-25T07:12:27;100229.16;;;6.22;55.27
21433;BME280;18592;49.708;10.900;2023-01-25T07:14:30;100225.38;;;6.23;55.34
21433;BME280;18592;49.708;10.900;2023-01-25T07:16:32;100223.53;;;6.23;55.74
21433;BME280;18592;49.708;10.900;2023-01-25T07:18:37;100219.81;;;6.24;55.22
21433;BME280;18592;49.708;10.900;2023-01-25T07:20:39;100225.22;;;6.24;55.31
21433;BME280;18592;49.708;10.900;2023-01-25T07:22:40;100217.28;;;6.23;55.48
21433;BME280;18592;49.708;10.900;2023-01-25T07:24:42;100211.19;;;6.21;55.59
21433;BME280;18592;49.708;10.900;2023-01-25T07:26:50;100213.91;;;6.21;55.53
21433;BME280;18592;49.708;10.900;2023-01-25T07:28:52;100214.91;;;6.20;55.51
21433;BME280;18592;49.708;10.900;2023-01-25T07:30:54;100212.06;;;6.21;55.21
21433;BME280;18592;49.708;10.900;2023-01-25T07:32:58;100205.97;;;6.19;55.52
21433;BME280;18592;49.708;10.900;2023-01-25T07:35:00;100216.81;;;6.19;55.66
21433;BME280;18592;49.708;10.900;2023-01-25T07:37:04;100211.56;;;6.18;55.13
21433;BME280;18592;49.708;10.900;2023-01-25T07:39:06;100210.53;;;6.19;55.62
21433;BME280;18592;49.708;10.900;2023-01-25T07:41:11;100214.28;;;6.18;55.51
21433;BME280;18592;49.708;10.900;2023-01-25T07:43:13;100218.84;;;6.17;55.42
21433;BME280;18592;49.708;10.900;2023-01-25T07:45:15;100214.28;;;6.18;55.28
21433;BME280;18592;49.708;10.900;2023-01-25T07:47:17;100213.41;;;6.17;55.41
21433;BME280;18592;49.708;10.900;2023-01-25T07:49:18;100218.03;;;6.17;55.58
21433;BME280;18592;49.708;10.900;2023-01-25T07:51:21;100219.69;;;6.18;55.47
21433;BME280;18592;49.708;10.900;2023-01-25T07:53:23;100219.69;;;6.18;55.28
21433;BME280;18592;49.708;10.900;2023-01-25T07:55:25;100218.03;;;6.17;55.45
21433;BME280;18592;49.708;10.900;2023-01-25T07:57:28;100217.81;;;6.18;55.49
21433;BME280;18592;49.708;10.900;2023-01-25T07:59:29;100223.25;;;6.18;55.47
21433;BME280;18592;49.708;10.900;2023-01-25T08:01:35;100216.13;;;6.17;55.78
21433;BME280;18592;49.708;10.900;2023-01-25T08:03:46;100210.72;;;6.17;55.20
21433;BME280;18592;49.708;10.900;2023-01-25T08:05:48;100216.31;;;6.16;55.33
21433;BME280;18592;49.708;10.900;2023-01-25T08:07:51;100219.88;;;6.16;55.41
21433;BME280;18592;49.708;10.900;2023-01-25T08:09:52;100218.84;;;6.17;55.37
21433;BME280;18592;49.708;10.900;2023-01-25T08:12:03;100219.69;;;6.18;55.48
21433;BME280;18592;49.708;10.900;2023-01-25T08:14:08;100220.53;;;6.18;55.58
21433;BME280;18592;49.708;10.900;2023-01-25T08:16:11;100220.53;;;6.18;55.52
21433;BME280;18592;49.708;10.900;2023-01-25T08:18:12;100216.81;;;6.19;55.65
21433;BME280;18592;49.708;10.900;2023-01-25T08:20:20;100215.97;;;6.19;55.30
21433;BME280;18592;49.708;10.900;2023-01-25T08:22:23;100212.81;;;6.30;55.15
21433;BME280;18592;49.708;10.900;2023-01-25T08:24:25;100210.47;;;6.27;55.40
21433;BME280;18592;49.708;10.900;2023-01-25T08:26:27;100221.31;;;6.27;55.19
21433;BME280;18592;49.708;10.900;2023-01-25T08:28:29;100212.50;;;6.25;55.44
21433;BME280;18592;49.708;10.900;2023-01-25T08:30:31;100207.94;;;6.25;55.52
21433;BME280;18592;49.708;10.900;2023-01-25T08:32:34;100210.66;;;6.25;55.48
21433;BME280;18592;49.708;10.900;2023-01-25T08:34:38;100205.22;;;6.25;55.48
21433;BME280;18592;49.708;10.900;2023-01-25T08:36:41;100204.38;;;6.25;55.50
21433;BME280;18592;49.708;10.900;2023-01-25T08:38:45;100201.69;;;6.25;55.59
21433;BME280;18592;49.708;10.900;2023-01-25T08:40:47;100196.25;;;6.25;55.74
21433;BME280;18592;49.708;10.900;2023-01-25T08:42:48;100194.41;;;6.25;55.60
21433;BME280;18592;49.708;10.900;2023-01-25T08:44:52;100189.19;;;6.24;55.48
21433;BME280;18592;49.708;10.900;2023-01-25T08:46:54;100197.09;;;6.25;55.74
21433;BME280;18592;49.708;10.900;2023-01-25T08:48:56;100198.97;;;6.25;55.34
21433;BME280;18592;49.708;10.900;2023-01-25T08:51:02;100186.28;;;6.25;55.72
21433;BME280;18592;49.708;10.900;2023-01-25T08:53:04;100187.13;;;6.26;55.58
21433;BME280;18592;49.708;10.900;2023-01-25T08:55:05;100187.13;;;6.26;55.48
21433;BME280;18592;49.708;10.900;2023-01-25T08:57:07;100190.84;;;6.25;55.35
21433;BME280;18592;49.708;10.900;2023-01-25T08:59:10;100190.03;;;6.24;55.45
21433;BME280;18592;49.708;10.900;2023-01-25T09:01:15;100192.53;;;6.26;55.52
21433;BME280;18592;49.708;10.900;2023-01-25T09:03:17;100180.00;;;6.25;55.43
21433;BME280;18592;49.708;10.900;2023-01-25T09:05:20;100181.91;;;6.24;55.38
21433;BME280;18592;49.708;10.900;2023-01-25T09:07:22;100188.97;;;6.25;55.78
21433;BME280;18592;49.708;10.900;2023-01-25T09:09:24;100184.41;;;6.26;55.55
21433;BME280;18592;49.708;10.900;2023-01-25T09:11:26;100189.84;;;6.26;55.44
21433;BME280;18592;49.708;10.900;2023-01-25T09:13:28;100179.00;;;6.26;55.55
21433;BME280;18592;49.708;10.900;2023-01-25T09:15:30;100186.13;;;6.27;55.75
21433;BME280;18592;49.708;10.900;2023-01-25T09:17:32;100184.41;;;6.26;55.79
21433;BME280;18592;49.708;10.900;2023-01-25T09:19:33;100176.94;;;6.28;55.56
21433;BME280;18592;49.708;10.900;2023-01-25T09:21:35;100177.59;;;6.30;54.94
21433;BME280;18592;49.708;10.900;2023-01-25T09:23:38;100174.25;;;6.28;55.47
21433;BME280;18592;49.708;10.900;2023-01-25T09:26:01;100180.50;;;6.28;55.76
21433;BME280;18592;49.708;10.900;2023-01-25T09:28:03;100166.13;;;6.28;55.32
21433;BME280;18592;49.708;10.900;2023-01-25T09:30:11;100167.81;;;6.29;55.67
21433;BME280;18592;49.708;10.900;2023-01-25T09:32:23;100161.53;;;6.28;55.43
21433;BME280;18592;49.708;10.900;2023-01-25T09:34:28;100166.75;;;6.30;55.43
21433;BME280;18592;49.708;10.900;2023-01-25T09:36:30;100158.63;;;6.30;55.54
21433;BME280;18592;49.708;10.900;2023-01-25T09:38:32;100164.91;;;6.30;55.22
21433;BME280;18592;49.708;10.900;2023-01-25T09:40:37;100165.75;;;6.31;55.46
21433;BME280;18592;49.708;10.900;2023-01-25T09:47:03;100164.91;;;6.30;55.70
21433;BME280;18592;49.708;10.900;2023-01-25T09:49:50;100165.09;;;6.29;55.60
21433;BME280;18592;49.708;10.900;2023-01-25T09:52:19;100153.41;;;6.28;55.67
21433;BME280;18592;49.708;10.900;2023-01-25T09:54:29;100162.41;;;6.29;55.47
21433;BME280;18592;49.708;10.900;2023-01-25T09:56:49;100154.06;;;6.30;55.17
21433;BME280;18592;49.708;10.900;2023-01-25T09:58:57;100155.94;;;6.30;55.79
21433;BME280;18592;49.708;10.900;2023-01-25T10:04:00;100148.66;;;6.30;55.84
21433;BME280;18592;49.708;10.900;2023-01-25T10:06:09;100150.34;;;6.31;55.86
21433;BME280;18592;49.708;10.900;2023-01-25T10:08:37;100153.91;;;6.32;55.91
21433;BME280;18592;49.708;10.900;2023-01-25T10:10:43;100155.56;;;6.33;55.57
21433;BME280;18592;49.708;10.900;2023-01-25T10:12:47;100153.72;;;6.33;55.48
21433;BME280;18592;49.708;10.900;2023-01-25T10:14:49;100154.56;;;6.34;55.62
21433;BME280;18592;49.708;10.900;2023-01-25T10:17:00;100150.81;;;6.35;55.73
21433;BME280;18592;49.708;10.900;2023-01-25T10:20:27;100146.22;;;6.35;55.88
21433;BME280;18592;49.708;10.900;2023-01-25T10:22:20;100152.50;;;6.36;55.48
21433;BME280;18592;49.708;10.900;2023-01-25T10:26:54;100147.09;;;6.36;55.79
21433;BME280;18592;49.708;10.900;2023-01-25T10:29:09;100143.53;;;6.35;55.70
21433;BME280;18592;49.708;10.900;2023-01-25T10:31:19;100137.94;;;6.37;55.41
21433;BME280;18592;49.708;10.900;2023-01-25T10:33:23;100132.53;;;6.37;55.37
21433;BME280;18592;49.708;10.900;2023-01-25T10:35:35;100136.06;;;6.37;55.68
21433;BME280;18592;49.708;10.900;2023-01-25T10:37:44;100127.13;;;6.37;55.76
21433;BME280;18592;49.708;10.900;2023-01-25T10:39:55;100117.09;;;6.37;55.38
21433;BME280;18592;49.708;10.900;2023-01-25T10:42:05;100116.28;;;6.37;55.54
21433;BME280;18592;49.708;10.900;2023-01-25T10:44:13;100113.75;;;6.35;55.51
21433;BME280;18592;49.708;10.900;2023-01-25T10:46:28;100116.28;;;6.37;55.58
21433;BME280;18592;49.708;10.900;2023-01-25T10:48:34;100105.63;;;6.35;55.46
21433;BME280;18592;49.708;10.900;2023-01-25T10:52:56;100097.50;;;6.35;55.41
21433;BME280;18592;49.708;10.900;2023-01-25T10:55:17;100102.06;;;6.35;55.58
21433;BME280;18592;49.708;10.900;2023-01-25T10:57:21;100092.91;;;6.36;55.75
21433;BME280;18592;49.708;10.900;2023-01-25T10:59:28;100095.63;;;6.36;55.55
21433;BME280;18592;49.708;10.900;2023-01-25T11:01:35;100091.06;;;6.36;55.62
21433;BME280;18592;49.708;10.900;2023-01-25T11:03:42;100084.78;;;6.36;55.47
21433;BME280;18592;49.708;10.900;2023-01-25T11:05:56;100088.34;;;6.36;55.50
21433;BME280;18592;49.708;10.900;2023-01-25T11:08:19;100083.78;;;6.37;55.38
21433;BME280;18592;49.708;10.900;2023-01-25T11:12:31;100085.44;;;6.38;55.43
21433;BME280;18592;49.708;10.900;2023-01-25T11:14:33;100075.47;;;6.38;55.70